createdAt,value
2024-03-10T00:01:53.590Z,100.00
2024-03-10T00:04:19.355Z,100.00
2024-03-10T00:06:46.621Z,100.00
2024-03-10T00:09:12.962Z,100.00
2024-03-10T00:11:38.771Z,100.00
2024-03-10T00:14:06.380Z,100.00
2024-03-10T00:16:32.405Z,100.00
2024-03-10T00:18:59.386Z,100.00
2024-03-10T00:21:25.077Z,100.00
2024-03-10T00:23:50.829Z,100.00
2024-03-10T00:26:16.576Z,100.00
2024-03-10T00:28:42.384Z,100.00
2024-03-10T00:31:10.264Z,100.00
2024-03-10T00:33:38.324Z,100.00
2024-03-10T00:36:07.360Z,100.00
2024-03-10T00:38:33.640Z,100.00
2024-03-10T00:40:59.366Z,100.00
2024-03-10T00:43:25.067Z,100.00
2024-03-10T00:45:53.623Z,100.00
2024-03-10T00:48:19.867Z,100.00
2024-03-10T00:50:48.008Z,100.00
2024-03-10T00:53:16.774Z,100.00
2024-03-10T00:55:46.014Z,100.00
2024-03-10T00:58:11.956Z,100.00
2024-03-10T01:00:39.080Z,100.00
2024-03-10T01:03:07.987Z,100.00
2024-03-10T01:05:36.836Z,100.00
2024-03-10T01:08:02.852Z,100.00
2024-03-10T01:10:28.956Z,100.00
2024-03-10T01:12:55.808Z,100.00
2024-03-10T01:15:22.915Z,100.00
2024-03-10T01:17:48.978Z,100.00
2024-03-10T01:20:14.904Z,100.00
2024-03-10T01:22:43.701Z,100.00
2024-03-10T01:25:10.056Z,100.00
2024-03-10T01:27:37.638Z,100.00
2024-03-10T01:30:04.512Z,100.00
2024-03-10T01:32:31.145Z,100.00
2024-03-10T01:34:57.271Z,100.00
2024-03-10T01:37:23.109Z,100.00
2024-03-10T01:39:48.965Z,100.00
2024-03-10T01:42:14.945Z,100.00
2024-03-10T01:44:40.664Z,100.00
2024-03-10T01:47:06.637Z,100.00
2024-03-10T01:49:35.293Z,100.00
2024-03-10T01:52:02.954Z,100.00
2024-03-10T01:54:33.141Z,100.00
2024-03-10T01:56:59.821Z,100.00
2024-03-10T01:59:26.908Z,100.00
2024-03-10T02:01:54.530Z,100.00
2024-03-10T02:04:21.372Z,100.00
2024-03-10T02:06:47.365Z,100.00
2024-03-10T02:09:17.606Z,100.00
2024-03-10T02:11:44.646Z,100.00
2024-03-10T02:14:10.428Z,100.00
2024-03-10T02:16:36.140Z,100.00
2024-03-10T02:19:02.295Z,100.00
2024-03-10T02:21:28.934Z,100.00
2024-03-10T02:24:17.650Z,100.00
2024-03-10T02:26:47.590Z,100.00
2024-03-10T02:29:19.930Z,100.00
2024-03-10T02:32:05.229Z,100.00
2024-03-10T02:34:53.495Z,100.00
2024-03-10T02:37:38.664Z,100.00
2024-03-10T02:40:23.700Z,100.00
2024-03-10T02:43:08.259Z,100.00
2024-03-10T02:45:52.790Z,100.00
2024-03-10T02:48:18.673Z,100.00
2024-03-10T02:50:45.727Z,100.00
2024-03-10T02:53:11.725Z,100.00
2024-03-10T02:55:38.165Z,100.00
2024-03-10T02:58:07.731Z,100.00
2024-03-10T03:00:37.293Z,100.00
2024-03-10T03:03:04.928Z,100.00
2024-03-10T03:05:31.830Z,100.00
2024-03-10T03:07:58.799Z,100.00
2024-03-10T03:10:25.733Z,100.00
2024-03-10T03:12:53.213Z,100.00
2024-03-10T03:15:19.041Z,100.00
2024-03-10T03:17:44.934Z,100.00
2024-03-10T03:20:17.180Z,100.00
2024-03-10T03:22:50.655Z,100.00
2024-03-10T03:25:18.883Z,100.00
2024-03-10T03:27:54.473Z,100.00
2024-03-10T03:30:20.358Z,100.00
2024-03-10T03:32:46.178Z,100.00
2024-03-10T03:35:12.321Z,100.00
2024-03-10T03:37:38.154Z,100.00
2024-03-10T03:40:08.677Z,100.00
2024-03-10T03:42:37.581Z,100.00
2024-03-10T03:45:07.102Z,100.00
2024-03-10T03:47:33.593Z,100.00
2024-03-10T03:49:59.424Z,100.00
2024-03-10T03:52:25.317Z,100.00
2024-03-10T03:54:52.406Z,100.00
2024-03-10T03:57:22.109Z,100.00
2024-03-10T03:59:48.195Z,100.00
2024-03-10T04:02:14.152Z,100.00
2024-03-10T04:04:41.336Z,100.00
2024-03-10T04:07:07.232Z,100.00
2024-03-10T04:09:33.150Z,100.00
2024-03-10T04:11:59.385Z,100.00
2024-03-10T04:14:25.622Z,100.00
2024-03-10T04:16:54.540Z,100.00
2024-03-10T04:19:21.672Z,100.00
2024-03-10T04:21:48.436Z,100.00
2024-03-10T04:24:14.240Z,100.00
2024-03-10T04:26:43.644Z,100.00
2024-03-10T04:29:10.918Z,100.00
2024-03-10T04:31:37.233Z,100.00
2024-03-10T04:34:02.979Z,100.00
2024-03-10T04:36:31.285Z,100.00
2024-03-10T04:38:57.260Z,100.00
2024-03-10T04:41:23.721Z,100.00
2024-03-10T04:43:49.659Z,100.00
2024-03-10T04:46:15.503Z,100.00
2024-03-10T04:48:41.794Z,100.00
2024-03-10T04:51:08.014Z,100.00
2024-03-10T04:53:33.904Z,100.00
2024-03-10T04:55:59.667Z,100.00
2024-03-10T04:58:25.471Z,100.00
2024-03-10T05:00:51.266Z,100.00
2024-03-10T05:03:16.996Z,100.00
2024-03-10T05:05:42.900Z,100.00
2024-03-10T05:08:11.678Z,100.00
2024-03-10T05:10:37.445Z,100.00
2024-03-10T05:13:03.214Z,100.00
2024-03-10T05:15:28.937Z,100.00
2024-03-10T05:17:54.688Z,100.00
2024-03-10T05:20:23.083Z,100.00
2024-03-10T05:22:49.052Z,100.00
2024-03-10T05:25:14.994Z,100.00
2024-03-10T05:27:42.847Z,100.00
2024-03-10T05:30:09.775Z,100.00
2024-03-10T05:32:37.142Z,100.00
2024-03-10T05:35:06.596Z,100.00
2024-03-10T05:37:36.253Z,100.00
2024-03-10T05:40:01.933Z,100.00
2024-03-10T05:42:27.693Z,100.00
2024-03-10T05:44:54.209Z,100.00
2024-03-10T05:47:19.940Z,100.00
2024-03-10T05:49:46.209Z,100.00
2024-03-10T05:52:12.377Z,100.00
2024-03-10T05:54:40.352Z,100.00
2024-03-10T05:57:06.316Z,100.00
2024-03-10T05:59:32.414Z,100.00
2024-03-10T06:01:58.089Z,100.00
2024-03-10T06:04:23.895Z,100.00
2024-03-10T06:06:50.371Z,100.00
2024-03-10T06:09:16.423Z,100.00
2024-03-10T06:11:42.698Z,100.00
2024-03-10T06:14:08.562Z,100.00
2024-03-10T06:16:34.920Z,100.00
2024-03-10T06:19:00.632Z,100.00
2024-03-10T06:21:47.145Z,100.00
2024-03-10T06:24:31.859Z,100.00
2024-03-10T06:26:57.917Z,98.17
2024-03-10T06:29:25.447Z,96.29
2024-03-10T06:31:52.490Z,93.85
2024-03-10T06:34:23.541Z,94.18
2024-03-10T06:36:49.498Z,93.94
2024-03-10T06:39:20.549Z,93.10
2024-03-10T06:41:48.215Z,92.01
2024-03-10T06:44:16.494Z,90.95
2024-03-10T06:46:45.358Z,88.05
2024-03-10T06:49:11.155Z,86.86
2024-03-10T06:51:37.030Z,83.94
2024-03-10T06:54:05.160Z,84.69
2024-03-10T06:56:31.116Z,83.32
2024-03-10T06:58:57.641Z,82.05
2024-03-10T07:01:23.751Z,82.29
2024-03-10T07:03:53.935Z,82.58
2024-03-10T07:06:22.928Z,79.66
2024-03-10T07:08:52.060Z,77.48
2024-03-10T07:11:17.994Z,74.27
2024-03-10T07:13:43.982Z,74.36
2024-03-10T07:16:09.759Z,73.07
2024-03-10T07:18:36.449Z,73.11
2024-03-10T07:21:02.171Z,70.45
2024-03-10T07:23:28.008Z,68.48
2024-03-10T07:25:53.923Z,67.68
2024-03-10T07:28:19.656Z,67.97
2024-03-10T07:30:45.382Z,68.46
2024-03-10T07:33:11.158Z,68.00
2024-03-10T07:35:37.244Z,65.58
2024-03-10T07:38:03.023Z,66.29
2024-03-10T07:40:28.987Z,66.89
2024-03-10T07:42:54.964Z,65.38
2024-03-10T07:45:20.861Z,63.96
2024-03-10T07:47:48.566Z,63.27
2024-03-10T07:50:19.666Z,61.04
2024-03-10T07:52:47.850Z,60.61
2024-03-10T07:55:13.951Z,58.56
2024-03-10T07:57:41.261Z,57.46
2024-03-10T08:00:23.111Z,59.22
2024-03-10T08:02:49.526Z,59.22
2024-03-10T08:05:15.396Z,56.83
2024-03-10T08:07:43.588Z,55.86
2024-03-10T08:10:14.073Z,55.31
2024-03-10T08:12:41.067Z,54.61
2024-03-10T08:15:07.897Z,55.06
2024-03-10T08:17:34.170Z,53.80
2024-03-10T08:20:00.056Z,52.93
2024-03-10T08:22:27.138Z,52.46
2024-03-10T08:24:56.104Z,51.12
2024-03-10T08:27:23.321Z,52.52
2024-03-10T08:29:50.187Z,52.90
2024-03-10T08:32:16.076Z,52.11
2024-03-10T08:34:44.046Z,52.19
2024-03-10T08:37:10.034Z,53.17
2024-03-10T08:39:35.746Z,52.90
2024-03-10T08:42:01.510Z,51.14
2024-03-10T08:44:27.378Z,53.09
2024-03-10T08:46:53.487Z,52.36
2024-03-10T08:49:19.285Z,52.75
2024-03-10T08:51:45.019Z,54.55
2024-03-10T08:54:11.119Z,53.99
2024-03-10T08:56:39.742Z,52.72
2024-03-10T08:59:05.616Z,52.74
2024-03-10T09:01:32.939Z,51.65
2024-03-10T09:04:03.843Z,50.74
2024-03-10T09:06:30.813Z,49.39
2024-03-10T09:08:56.489Z,49.55
2024-03-10T09:11:25.359Z,50.74
2024-03-10T09:13:52.294Z,49.37
2024-03-10T09:16:18.964Z,48.40
2024-03-10T09:18:45.374Z,47.22
2024-03-10T09:21:11.185Z,45.98
2024-03-10T09:23:38.814Z,46.55
2024-03-10T09:26:04.828Z,44.44
2024-03-10T09:28:30.792Z,43.93
2024-03-10T09:30:59.191Z,43.39
2024-03-10T09:33:28.420Z,44.71
2024-03-10T09:35:56.929Z,44.35
2024-03-10T09:38:22.730Z,44.88
2024-03-10T09:40:49.993Z,44.98
2024-03-10T09:43:17.121Z,46.00
2024-03-10T09:45:50.141Z,45.43
2024-03-10T09:48:16.421Z,46.33
2024-03-10T09:50:49.094Z,46.52
2024-03-10T09:53:14.902Z,45.78
2024-03-10T09:55:40.904Z,45.32
2024-03-10T09:58:23.527Z,44.54
2024-03-10T10:00:55.792Z,44.24
2024-03-10T10:03:23.161Z,43.38
2024-03-10T10:05:56.137Z,43.50
2024-03-10T10:08:24.470Z,42.96
2024-03-10T10:10:51.524Z,41.74
2024-03-10T10:13:23.921Z,42.54
2024-03-10T10:15:49.836Z,43.17
2024-03-10T10:18:17.369Z,43.13
2024-03-10T10:20:47.425Z,43.46
2024-03-10T10:23:15.517Z,42.33
2024-03-10T10:25:43.899Z,41.88
2024-03-10T10:28:14.444Z,40.97
2024-03-10T10:30:41.549Z,40.40
2024-03-10T10:33:09.647Z,40.57
2024-03-10T10:35:40.840Z,41.57
2024-03-10T10:38:14.832Z,40.87
2024-03-10T10:40:59.700Z,40.98
2024-03-10T10:43:27.776Z,40.84
2024-03-10T10:45:53.471Z,42.09
2024-03-10T10:48:20.435Z,41.74
2024-03-10T10:50:49.309Z,41.93
2024-03-10T10:53:18.972Z,41.22
2024-03-10T10:55:46.730Z,41.35
2024-03-10T10:58:17.752Z,40.82
2024-03-10T11:00:52.385Z,40.52
2024-03-10T11:03:24.094Z,40.19
2024-03-10T11:06:08.072Z,40.88
2024-03-10T11:08:38.306Z,40.00
2024-03-10T11:11:05.246Z,40.82
2024-03-10T11:13:31.301Z,39.93
2024-03-10T11:16:13.280Z,40.18
2024-03-10T11:18:40.995Z,40.57
2024-03-10T11:21:08.640Z,42.43
2024-03-10T11:23:41.769Z,41.96
2024-03-10T11:26:09.650Z,42.98
2024-03-10T11:28:51.750Z,41.76
2024-03-10T11:31:20.781Z,41.91
2024-03-10T11:33:50.750Z,43.38
2024-03-10T11:36:17.308Z,44.12
2024-03-10T11:38:43.993Z,46.13
2024-03-10T11:41:10.478Z,45.86
2024-03-10T11:43:37.429Z,44.42
2024-03-10T11:46:16.167Z,46.84
2024-03-10T11:48:41.984Z,46.79
2024-03-10T11:51:10.554Z,46.20
2024-03-10T11:53:36.636Z,46.39
2024-03-10T11:56:04.926Z,46.52
2024-03-10T11:58:30.861Z,46.20
2024-03-10T12:00:56.822Z,46.55
2024-03-10T12:03:22.805Z,46.18
2024-03-10T12:05:49.389Z,45.50
2024-03-10T12:08:15.190Z,44.78
2024-03-10T12:10:40.977Z,45.06
2024-03-10T12:13:07.707Z,44.46
2024-03-10T12:15:34.637Z,45.21
2024-03-10T12:18:05.787Z,47.05
2024-03-10T12:20:31.902Z,47.64
2024-03-10T12:22:59.615Z,47.41
2024-03-10T12:25:25.461Z,46.53
2024-03-10T12:27:51.391Z,46.04
2024-03-10T12:30:18.277Z,44.51
2024-03-10T12:32:54.031Z,43.82
2024-03-10T12:35:20.966Z,44.45
2024-03-10T12:37:47.799Z,44.96
2024-03-10T12:40:16.504Z,45.16
2024-03-10T12:42:50.618Z,45.00
2024-03-10T12:45:19.453Z,44.88
2024-03-10T12:47:51.989Z,44.16
2024-03-10T12:50:18.403Z,44.57
2024-03-10T12:52:44.299Z,44.35
2024-03-10T12:55:10.955Z,45.20
2024-03-10T12:57:37.870Z,45.20
2024-03-10T13:00:28.945Z,44.39
2024-03-10T13:02:58.994Z,45.62
2024-03-10T13:05:25.797Z,45.01
2024-03-10T13:07:51.877Z,45.26
2024-03-10T13:10:17.996Z,44.94
2024-03-10T13:12:44.505Z,45.72
2024-03-10T13:15:11.993Z,46.58
2024-03-10T13:17:39.728Z,46.76
2024-03-10T13:20:17.652Z,48.29
2024-03-10T13:22:45.042Z,50.03
2024-03-10T13:25:12.405Z,49.27
2024-03-10T13:27:42.573Z,49.26
2024-03-10T13:30:10.691Z,48.94
2024-03-10T13:32:37.656Z,48.99
2024-03-10T13:35:04.679Z,49.89
2024-03-10T13:37:35.943Z,50.62
2024-03-10T13:40:12.342Z,50.38
2024-03-10T13:42:42.588Z,51.48
2024-03-10T13:45:14.797Z,50.97
2024-03-10T13:47:45.917Z,52.27
2024-03-10T13:50:14.638Z,50.77
2024-03-10T13:52:43.969Z,50.98
2024-03-10T13:55:12.932Z,51.80
2024-03-10T13:57:40.498Z,52.72
2024-03-10T14:00:14.801Z,53.13
2024-03-10T14:02:44.210Z,54.03
2024-03-10T14:05:16.514Z,53.18
2024-03-10T14:07:46.468Z,53.32
2024-03-10T14:10:12.775Z,53.12
2024-03-10T14:12:39.799Z,53.94
2024-03-10T14:15:10.651Z,54.31
2024-03-10T14:17:40.029Z,55.44
2024-03-10T14:20:08.140Z,55.06
2024-03-10T14:22:34.869Z,53.54
2024-03-10T14:25:00.875Z,53.68
2024-03-10T14:27:26.570Z,55.24
2024-03-10T14:29:52.390Z,54.56
2024-03-10T14:32:19.058Z,54.62
2024-03-10T14:34:44.842Z,54.73
2024-03-10T14:37:10.572Z,56.70
2024-03-10T14:39:36.503Z,55.93
2024-03-10T14:42:02.820Z,57.01
2024-03-10T14:44:28.728Z,57.45
2024-03-10T14:46:54.624Z,57.12
2024-03-10T14:49:20.543Z,57.47
2024-03-10T14:51:46.242Z,58.98
2024-03-10T14:54:12.372Z,59.98
2024-03-10T14:56:39.789Z,61.80
2024-03-10T14:59:07.704Z,61.99
2024-03-10T15:01:34.429Z,62.17
2024-03-10T15:04:00.902Z,61.54
2024-03-10T15:06:27.108Z,61.28
2024-03-10T15:08:55.327Z,62.89
2024-03-10T15:11:21.582Z,64.69
2024-03-10T15:13:48.466Z,64.98
2024-03-10T15:16:15.028Z,65.18
2024-03-10T15:18:43.036Z,67.07
2024-03-10T15:21:08.883Z,69.57
2024-03-10T15:23:34.617Z,69.68
2024-03-10T15:26:04.877Z,69.61
2024-03-10T15:28:30.842Z,71.18
2024-03-10T15:30:58.431Z,71.52
2024-03-10T15:33:24.387Z,72.00
2024-03-10T15:35:50.821Z,72.71
2024-03-10T15:38:16.726Z,73.38
2024-03-10T15:40:42.728Z,73.80
2024-03-10T15:43:10.787Z,73.68
2024-03-10T15:45:40.764Z,75.44
2024-03-10T15:48:07.688Z,75.46
2024-03-10T15:50:33.801Z,76.47
2024-03-10T15:53:05.091Z,78.21
2024-03-10T15:55:33.944Z,79.78
2024-03-10T15:57:59.696Z,78.31
2024-03-10T16:00:26.997Z,78.70
2024-03-10T16:02:57.028Z,78.74
2024-03-10T16:05:41.412Z,79.45
2024-03-10T16:08:07.950Z,80.26
2024-03-10T16:10:39.787Z,80.16
2024-03-10T16:13:07.330Z,81.51
2024-03-10T16:15:37.601Z,81.60
2024-03-10T16:18:07.390Z,81.60
2024-03-10T16:20:34.474Z,82.84
2024-03-10T16:23:00.418Z,83.53
2024-03-10T16:25:26.241Z,85.07
2024-03-10T16:27:53.173Z,84.73
2024-03-10T16:30:19.578Z,85.92
2024-03-10T16:32:46.899Z,87.63
2024-03-10T16:35:13.728Z,89.86
2024-03-10T16:37:41.902Z,89.98
2024-03-10T16:40:14.195Z,90.97
2024-03-10T16:42:44.596Z,90.30
2024-03-10T16:45:17.654Z,90.90
2024-03-10T16:47:46.323Z,91.69
2024-03-10T16:50:13.089Z,91.78
2024-03-10T16:52:39.533Z,90.73
2024-03-10T16:55:08.617Z,91.08
2024-03-10T16:57:37.108Z,91.69
2024-03-10T17:00:05.502Z,91.48
2024-03-10T17:02:31.946Z,91.03
2024-03-10T17:04:58.480Z,91.09
2024-03-10T17:07:24.364Z,90.39
2024-03-10T17:09:50.076Z,91.71
2024-03-10T17:12:15.994Z,90.70
2024-03-10T17:14:41.958Z,91.69
2024-03-10T17:17:07.804Z,89.59
2024-03-10T17:19:33.592Z,89.57
2024-03-10T17:21:59.520Z,90.46
2024-03-10T17:24:26.260Z,90.18
2024-03-10T17:26:53.473Z,89.99
2024-03-10T17:29:19.390Z,90.40
2024-03-10T17:31:45.147Z,90.04
2024-03-10T17:34:14.049Z,90.13
2024-03-10T17:36:42.666Z,90.30
2024-03-10T17:39:11.460Z,90.65
2024-03-10T17:41:38.326Z,90.25
2024-03-10T17:44:05.141Z,91.90
2024-03-10T17:46:34.127Z,92.81
2024-03-10T17:49:01.052Z,92.40
2024-03-10T17:51:30.619Z,92.72
2024-03-10T17:53:57.570Z,92.11
2024-03-10T17:56:25.001Z,92.18
2024-03-10T17:58:51.794Z,93.24
2024-03-10T18:01:20.873Z,92.52
2024-03-10T18:03:52.545Z,94.91
2024-03-10T18:06:18.960Z,94.00
2024-03-10T18:08:45.108Z,94.08
2024-03-10T18:11:14.520Z,94.63
2024-03-10T18:13:41.624Z,95.52
2024-03-10T18:16:08.603Z,95.68
2024-03-10T18:18:34.862Z,95.86
2024-03-10T18:21:01.255Z,95.70
2024-03-10T18:23:27.043Z,96.23
2024-03-10T18:25:55.436Z,97.11
2024-03-10T18:28:21.516Z,97.27
2024-03-10T18:30:47.894Z,97.64
2024-03-10T18:33:15.428Z,97.88
2024-03-10T18:35:41.468Z,98.13
2024-03-10T18:38:07.412Z,98.99
2024-03-10T18:40:33.309Z,99.20
2024-03-10T18:42:59.613Z,98.55
2024-03-10T18:45:29.082Z,99.47
2024-03-10T18:47:56.125Z,100.00
2024-03-10T18:50:22.941Z,100.00
2024-03-10T18:52:50.662Z,100.00
2024-03-10T18:55:16.413Z,100.00
2024-03-10T18:57:42.393Z,100.00
2024-03-10T19:00:09.075Z,100.00
2024-03-10T19:02:34.907Z,100.00
2024-03-10T19:05:00.919Z,100.00
2024-03-10T19:07:26.824Z,100.00
2024-03-10T19:09:53.154Z,100.00
2024-03-10T19:12:20.276Z,100.00
2024-03-10T19:14:47.816Z,100.00
2024-03-10T19:17:14.056Z,100.00
2024-03-10T19:19:39.959Z,100.00
2024-03-10T19:22:05.770Z,100.00
2024-03-10T19:24:31.676Z,100.00
2024-03-10T19:26:57.996Z,100.00
2024-03-10T19:29:23.800Z,100.00
2024-03-10T19:31:53.331Z,100.00
2024-03-10T19:34:20.435Z,100.00
2024-03-10T19:36:46.261Z,100.00
2024-03-10T19:39:12.164Z,100.00
2024-03-10T19:41:38.059Z,100.00
2024-03-10T19:44:06.189Z,100.00
2024-03-10T19:46:32.363Z,100.00
2024-03-10T19:48:58.146Z,100.00
2024-03-10T19:51:24.022Z,100.00
2024-03-10T19:53:49.739Z,100.00
2024-03-10T19:56:17.679Z,100.00
2024-03-10T19:58:43.618Z,100.00
2024-03-10T20:01:09.981Z,100.00
2024-03-10T20:03:35.836Z,100.00
2024-03-10T20:06:01.746Z,100.00
2024-03-10T20:08:27.498Z,100.00
2024-03-10T20:10:53.413Z,100.00
2024-03-10T20:13:19.211Z,100.00
2024-03-10T20:15:45.004Z,100.00
2024-03-10T20:18:14.666Z,100.00
2024-03-10T20:20:42.368Z,100.00
2024-03-10T20:23:09.851Z,100.00
2024-03-10T20:25:36.952Z,100.00
2024-03-10T20:28:03.987Z,100.00
2024-03-10T20:30:31.473Z,100.00
2024-03-10T20:32:57.910Z,100.00
2024-03-10T20:35:23.809Z,100.00
2024-03-10T20:37:49.729Z,100.00
2024-03-10T20:40:16.805Z,100.00
2024-03-10T20:42:42.976Z,100.00
2024-03-10T20:45:12.998Z,100.00
2024-03-10T20:47:41.417Z,100.00
2024-03-10T20:50:11.003Z,100.00
2024-03-10T20:52:36.916Z,100.00
2024-03-10T20:55:03.422Z,100.00
2024-03-10T20:57:29.576Z,100.00
2024-03-10T20:59:55.488Z,100.00
2024-03-10T21:02:21.564Z,100.00
2024-03-10T21:04:47.322Z,100.00
2024-03-10T21:07:13.535Z,100.00
2024-03-10T21:09:40.578Z,100.00
2024-03-10T21:12:08.708Z,100.00
2024-03-10T21:14:35.081Z,100.00
2024-03-10T21:17:01.206Z,100.00
2024-03-10T21:19:27.572Z,100.00
2024-03-10T21:21:54.219Z,100.00
2024-03-10T21:24:20.368Z,100.00
2024-03-10T21:26:49.392Z,100.00
2024-03-10T21:29:15.746Z,100.00
2024-03-10T21:31:41.635Z,100.00
2024-03-10T21:34:10.569Z,100.00
2024-03-10T21:36:36.810Z,100.00
2024-03-10T21:39:03.825Z,100.00
2024-03-10T21:41:30.662Z,100.00
2024-03-10T21:43:56.809Z,100.00
2024-03-10T21:46:22.935Z,100.00
2024-03-10T21:48:48.794Z,100.00
2024-03-10T21:51:14.602Z,100.00
2024-03-10T21:53:40.608Z,100.00
2024-03-10T21:56:07.064Z,100.00
2024-03-10T21:58:33.331Z,100.00
2024-03-10T22:01:01.022Z,100.00
2024-03-10T22:03:27.717Z,100.00
2024-03-10T22:05:54.169Z,100.00
2024-03-10T22:08:19.983Z,100.00
2024-03-10T22:10:45.766Z,100.00
2024-03-10T22:13:11.657Z,100.00
2024-03-10T22:15:37.369Z,100.00
2024-03-10T22:18:03.316Z,100.00
2024-03-10T22:20:30.321Z,100.00
2024-03-10T22:22:56.991Z,100.00
2024-03-10T22:25:26.768Z,100.00
2024-03-10T22:27:53.183Z,100.00
2024-03-10T22:30:26.754Z,100.00
2024-03-10T22:32:53.031Z,100.00
2024-03-10T22:35:19.905Z,100.00
2024-03-10T22:37:48.290Z,100.00
2024-03-10T22:40:17.497Z,100.00
2024-03-10T22:42:45.036Z,100.00
2024-03-10T22:45:23.691Z,100.00
2024-03-10T22:47:54.766Z,100.00
2024-03-10T22:50:20.878Z,100.00
2024-03-10T22:52:48.411Z,100.00
2024-03-10T22:55:16.533Z,100.00
2024-03-10T22:57:43.360Z,100.00
2024-03-10T23:00:33.168Z,100.00
2024-03-10T23:03:08.612Z,100.00
2024-03-10T23:05:36.220Z,100.00
2024-03-10T23:08:06.760Z,100.00
2024-03-10T23:10:33.192Z,100.00
2024-03-10T23:12:59.817Z,100.00
2024-03-10T23:15:26.306Z,100.00
2024-03-10T23:17:52.300Z,100.00
2024-03-10T23:20:23.782Z,100.00
2024-03-10T23:22:54.893Z,100.00
2024-03-10T23:25:22.058Z,100.00
2024-03-10T23:27:49.125Z,100.00
2024-03-10T23:30:18.248Z,100.00
2024-03-10T23:32:48.162Z,100.00
2024-03-10T23:35:16.583Z,100.00
2024-03-10T23:37:42.585Z,100.00
2024-03-10T23:40:15.612Z,100.00
2024-03-10T23:42:42.993Z,100.00
2024-03-10T23:45:11.567Z,100.00
2024-03-10T23:47:40.014Z,100.00
2024-03-10T23:50:15.455Z,100.00
2024-03-10T23:52:44.227Z,100.00
2024-03-10T23:55:11.438Z,100.00
2024-03-10T23:57:37.753Z,100.00
